createdAt,value
2018-01-25T00:07:18.575Z,5.3
2018-01-25T00:18:06.516Z,2.1
2018-01-25T00:29:09.348Z,2
2018-01-25T00:40:09.504Z,2.8
2018-01-25T00:51:23.692Z,2.2
2018-01-25T01:02:05.978Z,2.4
2018-01-25T01:12:47.376Z,2.2
2018-01-25T01:23:32.011Z,2.5
2018-01-25T01:36:02.276Z,2.2
2018-01-25T01:47:32.624Z,1.9
2018-01-25T01:58:37.707Z,1.9
2018-01-25T02:09:34.986Z,1.8
2018-01-25T02:20:41.075Z,1.9
2018-01-25T02:31:46.257Z,2
2018-01-25T02:42:41.304Z,2.1
2018-01-25T02:53:52.903Z,1.8
2018-01-25T03:05:37.539Z,1.9
2018-01-25T03:16:22.915Z,2
2018-01-25T03:27:06.148Z,2.6
2018-01-25T03:37:50.281Z,1.8
2018-01-25T03:48:39.160Z,1.9
2018-01-25T03:59:28.930Z,2.4
2018-01-25T04:10:32.253Z,1.8
2018-01-25T04:21:32.640Z,2
2018-01-25T04:33:44.446Z,2.1
2018-01-25T04:44:54.580Z,1.8
2018-01-25T04:56:35.260Z,2.1
2018-01-25T05:07:29.007Z,2.1
2018-01-25T05:19:13.847Z,2.2
2018-01-25T05:30:27.639Z,2.7
2018-01-25T05:41:13.863Z,1.8
2018-01-25T05:51:56.945Z,2.4
2018-01-25T06:02:41.861Z,2.2
2018-01-25T06:13:43.126Z,1.8
2018-01-25T06:25:12.540Z,2.2
2018-01-25T06:38:15.372Z,2.3
2018-01-25T06:49:39.032Z,2.3
2018-01-25T07:01:09.643Z,2.5
2018-01-25T07:13:08.983Z,2.2
2018-01-25T07:24:47.162Z,4.6
2018-01-25T07:36:00.770Z,2.5
2018-01-25T07:47:09.304Z,2.5
2018-01-25T07:58:59.670Z,2.4
2018-01-25T08:10:25.617Z,2.1
2018-01-25T08:21:10.460Z,1.9
2018-01-25T08:31:55.763Z,2.9
2018-01-25T08:42:47.585Z,3.7
2018-01-25T08:53:41.202Z,2.1
2018-01-25T09:04:22.179Z,1.9
2018-01-25T09:15:02.587Z,2.2
2018-01-25T09:25:43.226Z,3.3
2018-01-25T09:36:21.421Z,3.1
2018-01-25T09:47:00.148Z,1.7
2018-01-25T09:57:38.520Z,2.1
2018-01-25T10:08:19.038Z,2
2018-01-25T10:19:04.042Z,3.6
2018-01-25T10:29:45.513Z,2.7
2018-01-25T10:40:26.992Z,2.4
2018-01-25T10:51:05.355Z,2.8
2018-01-25T11:01:44.275Z,1.5
2018-01-25T11:12:22.350Z,1.7
2018-01-25T11:23:01.974Z,1.6
2018-01-25T11:33:40.232Z,1.7
2018-01-25T11:44:23.938Z,1.8
2018-01-25T11:55:04.285Z,1.5
2018-01-25T12:05:44.590Z,1.8
2018-01-25T12:16:26.342Z,1.5
2018-01-25T12:27:05.841Z,1.8
2018-01-25T12:37:43.624Z,2.5
2018-01-25T12:48:24.081Z,1.8
2018-01-25T12:59:03.634Z,3.2
2018-01-25T13:09:43.548Z,2.3
2018-01-25T13:20:22.706Z,2.8
2018-01-25T13:31:00.975Z,3.1
2018-01-25T13:41:39.539Z,2.1
2018-01-25T13:52:17.325Z,2.8
2018-01-25T14:02:56.016Z,2.2
2018-01-25T14:13:44.269Z,2.2
2018-01-25T14:24:25.359Z,4.2
2018-01-25T14:35:05.266Z,3.4
2018-01-25T14:45:44.821Z,4.1
2018-01-25T14:56:25.386Z,4.7
2018-01-25T15:07:09.595Z,5.4
2018-01-25T15:18:59.752Z,5.1
2018-01-25T15:30:18.525Z,4.2
2018-01-25T15:41:07.151Z,3.5
2018-01-25T15:52:27.019Z,11.8
2018-01-25T16:03:22.306Z,12.3
2018-01-25T16:14:49.295Z,8.8
2018-01-25T16:27:10.310Z,5.9
2018-01-25T16:40:12.225Z,6.6
2018-01-25T16:52:17.286Z,5.5
2018-01-25T17:04:53.453Z,6
2018-01-25T17:15:32.165Z,6.8
2018-01-25T17:26:43.797Z,16.3
2018-01-25T17:37:23.649Z,9.9
2018-01-25T17:48:08.014Z,8.9
2018-01-25T17:58:58.803Z,5.3
2018-01-25T18:09:42.622Z,6.5
2018-01-25T18:20:22.961Z,15.9
2018-01-25T18:31:02.723Z,13.3
2018-01-25T18:41:42.422Z,9.1
2018-01-25T18:52:21.256Z,8.1
2018-01-25T19:03:01.330Z,6.5
2018-01-25T19:13:41.918Z,8.4
2018-01-25T19:24:25.004Z,7.5
2018-01-25T19:35:10.290Z,9.9
2018-01-25T19:45:57.520Z,9.7
2018-01-25T19:56:45.475Z,7.9
2018-01-25T20:07:29.546Z,7.9
2018-01-25T20:18:13.856Z,15.8
2018-01-25T20:28:57.601Z,10.4
2018-01-25T20:39:42.711Z,8.2
2018-01-25T20:50:30.285Z,7.5
2018-01-25T21:01:11.355Z,6.8
2018-01-25T21:11:57.515Z,6.2
2018-01-25T21:22:38.284Z,5.8
2018-01-25T21:33:18.148Z,5.4
2018-01-25T21:43:58.377Z,4.6
2018-01-25T21:54:41.621Z,4.9
2018-01-25T22:05:28.823Z,4.6
2018-01-25T22:16:10.666Z,4.9
2018-01-25T22:26:49.934Z,5.4
2018-01-25T22:38:11.411Z,4
2018-01-25T22:50:25.944Z,4.1
2018-01-25T23:02:47.876Z,3.6
2018-01-25T23:17:03.156Z,3.9
2018-01-25T23:18:22.179Z,4.1
2018-01-25T23:31:42.540Z,3.6
2018-01-25T23:44:24.268Z,3.7
2018-01-25T23:56:34.688Z,3.5
